Air Quality Table

TIMESTAMP NO2 SO2 O3 PM10 PM2.5 CO TEMP HUM WS WD NO
2021-02-25 02:00 2.58 ug/m3 0.49 ug/m3 96.51 ug/m3 10.09 ug/m3 6.51 ug/m3 0.15 mg/m3 12.62 C 90.86 % 2.78 m/s 341.68 Deg 0.01 ug/m3
2021-02-25 01:00 3.81 ug/m3 0.56 ug/m3 89.81 ug/m3 10.05 ug/m3 6.59 ug/m3 0.16 mg/m3 12.73 C 90.23 % 3.12 m/s 346.23 Deg 0.01 ug/m3
2021-02-25 00:00 4.08 ug/m3 0.61 ug/m3 87.47 ug/m3 10.27 ug/m3 6.35 ug/m3 0.16 mg/m3 12.68 C 88.31 % 2.59 m/s 321.69 Deg 0.01 ug/m3
2021-02-24 23:00 5.34 ug/m3 0.69 ug/m3 87.07 ug/m3 10.77 ug/m3 6.57 ug/m3 0.17 mg/m3 12.77 C 87.61 % 2.2 m/s 311.5 Deg 0.02 ug/m3
2021-02-24 22:00 15.46 ug/m3 1.15 ug/m3 77.13 ug/m3 9.03 ug/m3 7.02 ug/m3 0.17 mg/m3 13.05 C 86.34 % 2.01 m/s 317.28 Deg 0.02 ug/m3
2021-02-24 21:00 7.39 ug/m3 0.8 ug/m3 90.06 ug/m3 9.04 ug/m3 7.08 ug/m3 0.17 mg/m3 13.08 C 84.83 % 2.46 m/s 315.68 Deg 0.01 ug/m3
2021-02-24 20:00 11.16 ug/m3 0.8 ug/m3 87.31 ug/m3 10.34 ug/m3 7.48 ug/m3 0.18 mg/m3 12.96 C 86.61 % 2.07 m/s 300.69 Deg 0.02 ug/m3
2021-02-24 19:00 3.05 ug/m3 0.46 ug/m3 99.49 ug/m3 10.48 ug/m3 7.44 ug/m3 0.18 mg/m3 13.11 C 86.45 % 1.94 m/s 305.26 Deg 0.01 ug/m3
2021-02-24 18:00 8.32 ug/m3 0.64 ug/m3 94.71 ug/m3 10.3 ug/m3 7.08 ug/m3 0.18 mg/m3 13.58 C 86.17 % 2.9 m/s 324.21 Deg 0.18 ug/m3
2021-02-24 17:00 3.12 ug/m3 0.7 ug/m3 105.37 ug/m3 10.97 ug/m3 6.75 ug/m3 0.18 mg/m3 14.27 C 85.97 % 3.74 m/s 323.77 Deg 0.13 ug/m3
2021-02-24 16:00 2.12 ug/m3 0.69 ug/m3 105.51 ug/m3 8.29 ug/m3 6.85 ug/m3 0.18 mg/m3 14.69 C 84.5 % 3.49 m/s 311.55 Deg 0.14 ug/m3
2021-02-24 15:00 2.26 ug/m3 0.83 ug/m3 103.58 ug/m3 8.72 ug/m3 8.68 ug/m3 0.16 mg/m3 14.66 C 83.42 % 3.45 m/s 313.49 Deg 0.26 ug/m3
2021-02-24 14:00 8.45 ug/m3 1.37 ug/m3 90.46 ug/m3 11.13 ug/m3 8.68 ug/m3 0.17 mg/m3 14.55 C 83.67 % 3.26 m/s 321.75 Deg 2 ug/m3
2021-02-24 13:00 3.75 ug/m3 1.07 ug/m3 94.6 ug/m3 11.29 ug/m3 7.54 ug/m3 0.18 mg/m3 14.68 C 82.95 % 2.91 m/s 299.29 Deg 0.68 ug/m3
2021-02-24 12:00 5.14 ug/m3 1.12 ug/m3 86.3 ug/m3 10.75 ug/m3 8.7 ug/m3 0.18 mg/m3 14.26 C 83.94 % 2.81 m/s 323.28 Deg 1.08 ug/m3
2021-02-24 11:00 9.92 ug/m3 1.44 ug/m3 73.24 ug/m3 10.95 ug/m3 7.18 ug/m3 0.18 mg/m3 14.09 C 84.43 % 2.76 m/s 323.92 Deg 2.85 ug/m3
2021-02-24 10:00 5.96 ug/m3 1.06 ug/m3 78.33 ug/m3 9.87 ug/m3 11.31 ug/m3 0.18 mg/m3 13.97 C 85.65 % 3.15 m/s 346.35 Deg 1.17 ug/m3
2021-02-24 09:00 10.04 ug/m3 1.24 ug/m3 70.82 ug/m3 9.8 ug/m3 7.4 ug/m3 0.18 mg/m3 13.52 C 86.2 % 3.67 m/s 272.52 Deg 1.62 ug/m3
2021-02-24 08:00 5.45 ug/m3 0.78 ug/m3 83.56 ug/m3 8.29 ug/m3 6.21 ug/m3 0.18 mg/m3 12.91 C 84.98 % 3.41 m/s 100.54 Deg 0.29 ug/m3
2021-02-24 07:00 6.2 ug/m3 0.78 ug/m3 83.47 ug/m3 8.83 ug/m3 6.79 ug/m3 0.18 mg/m3 12.47 C 85.44 % 2.89 m/s 318.48 Deg 0.04 ug/m3
2021-02-24 06:00 3.13 ug/m3 0.69 ug/m3 94.01 ug/m3 9.94 ug/m3 6.61 ug/m3 0.18 mg/m3 12.52 C 86.3 % 2.5 m/s 336.11 Deg 0.01 ug/m3
2021-02-24 05:00 2.66 ug/m3 0.69 ug/m3 97.72 ug/m3 8.63 ug/m3 7.22 ug/m3 0.18 mg/m3 12.61 C 85.08 % 2.61 m/s 341.19 Deg 0.01 ug/m3

It is to be noted that the data is provisional and subject to quality assurance procedures. For validated data kindly refer your request to contact.air@era.org.mt